createdAt,value
2023-08-29T00:00:24.312Z,12.00
2023-08-29T00:04:34.244Z,6.33
2023-08-29T00:39:53.706Z,10.67
2023-08-29T01:03:51.261Z,10.00
2023-08-29T01:07:43.396Z,13.00
2023-08-29T01:15:27.202Z,11.00
2023-08-29T01:24:27.327Z,11.00
2023-08-29T01:27:34.420Z,11.33
2023-08-29T01:31:09.218Z,8.00
2023-08-29T01:34:13.775Z,11.67
2023-08-29T01:37:17.911Z,10.33
2023-08-29T01:40:20.602Z,11.67
2023-08-29T01:43:25.818Z,11.67
2023-08-29T01:46:38.871Z,11.00
2023-08-29T03:06:46.773Z,10.00
2023-08-29T03:09:50.634Z,9.00
2023-08-29T03:12:53.761Z,8.00
2023-08-29T03:16:01.179Z,11.67
2023-08-29T03:19:04.484Z,12.00
2023-08-29T03:22:07.542Z,9.67
2023-08-29T03:25:11.351Z,8.00
2023-08-29T03:28:14.587Z,8.00
2023-08-29T03:31:18.603Z,9.00
2023-08-29T03:34:21.817Z,8.00
2023-08-29T03:37:25.660Z,8.00
2023-08-29T03:40:29.548Z,8.33
2023-08-29T04:02:26.594Z,8.67
2023-08-29T04:05:30.706Z,13.33
2023-08-29T04:08:34.467Z,12.00
2023-08-29T05:38:47.300Z,14.75
2023-08-29T05:42:05.228Z,10.00
2023-08-29T05:45:09.125Z,10.33
2023-08-29T05:48:17.686Z,11.25
2023-08-29T05:51:29.179Z,8.00
2023-08-29T05:54:32.494Z,8.33
2023-08-29T06:03:03.067Z,9.67
2023-08-29T06:06:06.830Z,7.33
2023-08-29T06:09:13.807Z,7.00
2023-08-29T06:23:35.228Z,12.00
2023-08-29T06:26:41.054Z,7.67
2023-08-29T06:29:44.225Z,8.00
2023-08-29T06:32:47.595Z,9.00
2023-08-29T06:35:50.256Z,10.00
2023-08-29T06:38:53.502Z,9.00
2023-08-29T06:41:57.208Z,11.00
2023-08-29T06:45:04.375Z,8.67
2023-08-29T06:48:07.723Z,3.67
2023-08-29T06:51:11.907Z,8.67
2023-08-29T06:54:14.619Z,9.00
2023-08-29T06:57:17.701Z,9.00
2023-08-29T07:00:24.351Z,8.67
2023-08-29T07:03:28.097Z,9.00
2023-08-29T07:06:30.805Z,9.33
2023-08-29T07:09:34.258Z,8.33
2023-08-29T07:12:37.613Z,8.67
2023-08-29T07:15:40.907Z,11.00
2023-08-29T07:18:43.943Z,7.00
2023-08-29T07:21:47.792Z,7.00
2023-08-29T07:25:05.052Z,8.00
2023-08-29T07:35:09.989Z,8.33
2023-08-29T07:43:07.237Z,9.00
2023-08-29T07:46:19.177Z,8.67
2023-08-29T07:53:45.440Z,11.00
2023-08-29T07:57:03.690Z,9.00
2023-08-29T08:08:47.350Z,8.67
2023-08-29T08:12:27.953Z,10.67
2023-08-29T11:49:24.087Z,17.00
2023-08-29T14:40:52.801Z,22.00
2023-08-29T14:44:03.790Z,21.33
2023-08-29T14:47:07.608Z,25.00
2023-08-29T14:50:24.679Z,24.00
2023-08-29T14:53:35.190Z,22.33
2023-08-29T14:56:40.586Z,25.33
2023-08-29T14:59:46.747Z,23.67
2023-08-29T15:03:10.669Z,24.00
2023-08-29T15:06:19.689Z,22.67
2023-08-29T15:09:25.516Z,23.67
2023-08-29T15:12:32.631Z,27.00
2023-08-29T15:15:39.390Z,22.33
2023-08-29T15:18:44.859Z,22.33
2023-08-29T15:38:03.436Z,23.33
2023-08-29T15:42:13.458Z,24.67
2023-08-29T16:00:44.367Z,24.67
2023-08-29T16:04:01.502Z,21.33
2023-08-29T16:07:28.342Z,24.67
2023-08-29T16:10:47.130Z,22.67
2023-08-29T16:13:51.408Z,22.67
2023-08-29T16:16:54.539Z,19.33
2023-08-29T16:19:59.910Z,21.33
2023-08-29T16:28:32.400Z,23.00
2023-08-29T16:31:39.019Z,22.67
2023-08-29T16:34:43.253Z,20.33
2023-08-29T16:37:52.225Z,23.00
2023-08-29T16:40:55.955Z,21.00
2023-08-29T16:43:59.631Z,22.67
2023-08-29T16:47:03.902Z,24.00
2023-08-29T16:50:09.196Z,21.33
2023-08-29T16:53:12.435Z,23.00
2023-08-29T16:57:04.421Z,22.00
2023-08-29T17:01:25.747Z,25.33
2023-08-29T17:04:33.025Z,22.33
2023-08-29T17:07:56.712Z,27.00
2023-08-29T17:12:26.623Z,22.00
2023-08-29T17:17:11.294Z,25.33
2023-08-29T17:31:48.418Z,22.33
2023-08-29T17:48:52.475Z,21.00
2023-08-29T17:51:57.087Z,21.67
2023-08-29T17:55:01.296Z,25.33
2023-08-29T17:58:10.345Z,26.33
2023-08-29T18:01:14.007Z,24.67
2023-08-29T18:04:18.226Z,20.67
2023-08-29T18:07:22.041Z,19.67
2023-08-29T18:10:26.137Z,20.33
2023-08-29T18:13:30.022Z,21.00
2023-08-29T18:16:37.731Z,19.33
2023-08-29T18:19:44.162Z,20.33
2023-08-29T18:23:13.327Z,21.33
2023-08-29T18:26:31.288Z,21.33
2023-08-29T18:29:37.879Z,21.33
2023-08-29T18:32:44.596Z,18.33
2023-08-29T18:35:54.712Z,20.33
2023-08-29T18:39:24.403Z,20.67
2023-08-29T18:42:41.032Z,22.00
2023-08-29T18:46:22.176Z,23.00
2023-08-29T18:50:05.071Z,26.67
2023-08-29T19:04:03.974Z,21.33
2023-08-29T19:07:11.054Z,24.00
2023-08-29T19:10:16.923Z,25.00
2023-08-29T19:59:32.094Z,28.33
2023-08-29T20:03:39.914Z,26.00
2023-08-29T20:07:22.820Z,28.25
2023-08-29T20:15:53.212Z,32.75
2023-08-29T20:19:27.251Z,25.75
2023-08-29T20:22:30.823Z,33.50
2023-08-29T20:25:35.087Z,31.75
2023-08-29T20:28:40.690Z,38.50
2023-08-29T20:31:44.825Z,31.00
2023-08-29T20:34:48.271Z,34.00
2023-08-29T20:37:52.266Z,43.75
2023-08-29T20:40:56.056Z,35.00
2023-08-29T20:44:01.616Z,36.25
2023-08-29T20:47:04.929Z,42.00
2023-08-29T20:50:08.499Z,38.50
2023-08-29T20:53:11.689Z,37.25
2023-08-29T20:56:15.032Z,30.50
2023-08-29T20:59:18.347Z,39.00
2023-08-29T21:02:21.756Z,38.75
2023-08-29T21:05:24.780Z,35.75
2023-08-29T21:08:28.959Z,35.25
2023-08-29T21:11:34.459Z,39.25
2023-08-29T21:14:48.021Z,31.75
2023-08-29T21:25:05.277Z,33.00
